Time;durP1;ratioP1;P1;durP2;ratioP2;P2;SDS_P1;SDS_P2;PMS_P1;PMS_P2;Temp;Humidity;BMP_temperature;BMP_pressure;BME280_temperature;BME280_humidity;BME280_pressure;Samples;Min_cycle;Max_cycle;Signal;HPM_P1;HPM_P2
2024/02/29 00:00:12;;;;;;;3.67;3.40;;;12.50;99.90;;;;;;5085694;28;20768;-78
2024/02/29 00:02:39;;;;;;;0.30;0.30;;;12.40;99.90;;;;;;5085550;28;20980;-78
2024/02/29 00:05:06;;;;;;;0.30;0.20;;;12.40;99.90;;;;;;5086512;28;20648;-78
2024/02/29 00:07:32;;;;;;;4.30;4.10;;;12.40;99.90;;;;;;5086112;28;20429;-78
2024/02/29 00:09:58;;;;;;;0.30;0.30;;;12.40;99.90;;;;;;5085513;28;20511;-78
2024/02/29 00:12:24;;;;;;;1.13;0.77;;;12.40;99.90;;;;;;5085141;28;20263;-78
2024/02/29 00:14:51;;;;;;;0.53;0.53;;;12.40;99.90;;;;;;5086788;28;20448;-78
2024/02/29 00:17:17;;;;;;;3.03;2.87;;;12.30;99.90;;;;;;5085243;28;20196;-78
2024/02/29 00:19:43;;;;;;;0.30;0.20;;;12.30;99.90;;;;;;5087222;28;20975;-78
2024/02/29 00:22:09;;;;;;;0.30;0.20;;;12.30;99.90;;;;;;5086698;28;20787;-78
2024/02/29 00:24:35;;;;;;;0.40;0.33;;;12.30;99.90;;;;;;5087405;28;20184;-78
2024/02/29 00:27:01;;;;;;;0.83;0.83;;;12.20;99.90;;;;;;5086702;28;20466;-78
2024/02/29 00:29:28;;;;;;;0.30;0.20;;;12.20;99.90;;;;;;5087255;28;20200;-78
2024/02/29 00:32:00;;;;;;;3.07;2.97;;;12.20;99.90;;;;;;5086719;28;20890;-78
2024/02/29 00:34:29;;;;;;;1.03;1.03;;;12.20;99.90;;;;;;5086887;28;20470;-78
2024/02/29 00:36:55;;;;;;;0.60;0.57;;;12.20;99.90;;;;;;5085113;28;20425;-78
2024/02/29 00:39:21;;;;;;;21.33;19.70;;;12.10;99.90;;;;;;5084915;28;20456;-78
2024/02/29 00:41:47;;;;;;;2.73;2.63;;;12.10;99.90;;;;;;5084925;28;20419;-78
2024/02/29 00:44:13;;;;;;;1.30;1.30;;;12.00;99.90;;;;;;5086687;28;20187;-78
2024/02/29 00:46:39;;;;;;;0.70;0.70;;;12.00;99.90;;;;;;5085016;28;20818;-78
2024/02/29 00:49:05;;;;;;;1.70;1.60;;;11.90;99.90;;;;;;5086532;28;20833;-78
2024/02/29 00:51:31;;;;;;;0.50;0.50;;;11.90;99.90;;;;;;5086334;28;20405;-78
2024/02/29 00:53:57;;;;;;;1.55;1.30;;;11.80;99.90;;;;;;5086514;28;20212;-78
2024/02/29 00:56:22;;;;;;;0.30;0.20;;;11.90;99.90;;;;;;5085989;28;20704;-78
2024/02/29 00:58:48;;;;;;;0.70;0.70;;;11.80;99.90;;;;;;5086372;28;20211;-78
2024/02/29 01:01:13;;;;;;;0.30;0.20;;;11.80;99.90;;;;;;5085498;28;20329;-78
2024/02/29 01:03:39;;;;;;;0.43;0.43;;;11.70;99.90;;;;;;5086382;28;20189;-77
2024/02/29 01:06:07;;;;;;;0.40;0.40;;;11.70;99.90;;;;;;5085784;28;20181;-78
2024/02/29 01:08:32;;;;;;;1.75;1.65;;;11.70;99.90;;;;;;5084261;28;20200;-78
2024/02/29 01:10:58;;;;;;;18.73;13.87;;;11.60;99.90;;;;;;5085889;28;20536;-78
2024/02/29 01:13:24;;;;;;;0.30;0.20;;;11.60;99.90;;;;;;5086047;28;20220;-78
2024/02/29 01:15:50;;;;;;;0.30;0.20;;;11.60;99.90;;;;;;5085926;28;20184;-78
2024/02/29 01:18:16;;;;;;;1.63;1.52;;;11.60;99.90;;;;;;5084387;28;20201;-78
2024/02/29 01:20:42;;;;;;;2.13;2.07;;;11.50;99.90;;;;;;5085523;28;20233;-78
2024/02/29 01:23:07;;;;;;;0.33;0.33;;;11.50;99.90;;;;;;5085551;28;20548;-78
2024/02/29 01:25:33;;;;;;;0.30;0.20;;;11.50;99.90;;;;;;5084751;28;20188;-78
2024/02/29 01:27:59;;;;;;;0.30;0.20;;;11.40;99.90;;;;;;5084224;28;20570;-78
2024/02/29 01:30:24;;;;;;;0.30;0.30;;;11.40;99.90;;;;;;5084273;28;20187;-78
2024/02/29 01:32:50;;;;;;;0.30;0.30;;;11.40;99.90;;;;;;5084156;28;20302;-78
2024/02/29 01:35:16;;;;;;;0.30;0.20;;;11.30;99.90;;;;;;5084244;28;20215;-78
2024/02/29 01:37:42;;;;;;;0.40;0.40;;;11.30;99.90;;;;;;5085232;28;20681;-78
2024/02/29 01:40:08;;;;;;;2.15;2.05;;;11.30;99.90;;;;;;5085524;28;20642;-78
2024/02/29 01:42:34;;;;;;;0.52;0.52;;;11.30;99.90;;;;;;5084030;28;20200;-78
2024/02/29 01:45:00;;;;;;;5.73;2.77;;;11.20;99.90;;;;;;5084148;28;20782;-78
2024/02/29 01:47:26;;;;;;;4.10;3.80;;;11.20;99.90;;;;;;5085505;28;20655;-78
2024/02/29 01:50:02;;;;;;;0.30;0.20;;;11.20;99.90;;;;;;5084592;28;20534;-78
2024/02/29 01:52:31;;;;;;;0.30;0.30;;;11.20;99.90;;;;;;5085262;28;20694;-78
2024/02/29 01:54:57;;;;;;;0.57;0.57;;;11.10;99.90;;;;;;5085454;28;20200;-78
2024/02/29 01:57:25;;;;;;;0.40;0.20;;;11.10;99.90;;;;;;5085216;28;20219;-78
2024/02/29 01:59:51;;;;;;;2.38;1.15;;;11.10;99.90;;;;;;5085137;28;20272;-78
2024/02/29 02:02:16;;;;;;;0.87;0.87;;;11.00;99.90;;;;;;5085055;28;20259;-78
2024/02/29 02:04:42;;;;;;;0.30;0.20;;;11.00;99.90;;;;;;5085974;28;20276;-78
2024/02/29 02:07:09;;;;;;;2.30;2.20;;;11.00;99.90;;;;;;5082955;28;20177;-78
2024/02/29 02:09:40;;;;;;;0.30;0.20;;;11.00;99.90;;;;;;5085465;28;20199;-78
2024/02/29 02:12:10;;;;;;;0.40;0.40;;;11.00;99.90;;;;;;5084864;28;20224;-78
2024/02/29 02:14:37;;;;;;;1.58;1.55;;;10.90;99.90;;;;;;5083750;28;20184;-78
2024/02/29 02:17:02;;;;;;;0.50;0.50;;;10.90;99.90;;;;;;5083415;28;20176;-78
2024/02/29 02:19:28;;;;;;;0.50;0.47;;;10.90;99.90;;;;;;5085617;28;20201;-78
2024/02/29 02:21:53;;;;;;;0.30;0.20;;;10.80;99.90;;;;;;5085229;28;20184;-77
2024/02/29 02:24:20;;;;;;;0.30;0.20;;;10.80;99.90;;;;;;5085281;28;20360;-78
2024/02/29 02:26:46;;;;;;;0.30;0.20;;;10.80;99.90;;;;;;5083729;28;20188;-78
2024/02/29 02:29:12;;;;;;;0.40;0.33;;;10.80;99.90;;;;;;5085228;28;20203;-78
2024/02/29 02:31:37;;;;;;;0.43;0.43;;;10.70;99.90;;;;;;5089274;28;20656;-78
2024/02/29 02:34:03;;;;;;;2.23;2.03;;;10.70;99.90;;;;;;5088860;28;20223;-78
2024/02/29 02:36:29;;;;;;;0.30;0.20;;;10.70;99.90;;;;;;5088481;28;20183;-77
2024/02/29 02:38:55;;;;;;;0.30;0.20;;;10.60;99.90;;;;;;5089214;28;20196;-78
2024/02/29 02:41:22;;;;;;;0.50;0.47;;;10.60;99.90;;;;;;5087130;28;20275;-78
2024/02/29 02:43:51;;;;;;;0.30;0.20;;;10.60;99.90;;;;;;5088927;28;20196;-78
2024/02/29 02:46:17;;;;;;;0.50;0.47;;;10.50;99.90;;;;;;5088829;28;20419;-78
2024/02/29 02:48:44;;;;;;;4.68;4.40;;;10.50;99.90;;;;;;5087531;28;20200;-78
2024/02/29 02:51:10;;;;;;;0.30;0.30;;;10.50;99.90;;;;;;5088663;28;20531;-78
2024/02/29 02:53:35;;;;;;;0.30;0.30;;;10.40;99.90;;;;;;5088868;28;20277;-78
2024/02/29 02:56:03;;;;;;;0.30;0.20;;;10.40;99.90;;;;;;5088197;28;20929;-78
2024/02/29 02:58:29;;;;;;;4.40;4.20;;;10.40;99.90;;;;;;5088451;28;20197;-78
2024/02/29 03:00:55;;;;;;;0.30;0.20;;;10.40;99.90;;;;;;5088484;28;20698;-78
2024/02/29 03:03:21;;;;;;;2.65;2.42;;;10.40;99.90;;;;;;5088041;28;20645;-78
2024/02/29 03:05:47;;;;;;;10.97;10.43;;;10.30;99.90;;;;;;5088587;28;20541;-78
2024/02/29 03:08:13;;;;;;;0.30;0.20;;;10.30;99.90;;;;;;5087487;28;20973;-78
2024/02/29 03:10:39;;;;;;;2.15;1.95;;;10.30;99.90;;;;;;5086502;28;20553;-78
2024/02/29 03:13:04;;;;;;;0.30;0.20;;;10.30;99.90;;;;;;5087794;28;20232;-78
2024/02/29 03:15:30;;;;;;;9.77;8.90;;;10.20;99.90;;;;;;5088415;28;20466;-78
2024/02/29 03:17:56;;;;;;;0.40;0.30;;;10.20;99.90;;;;;;5086333;28;20200;-78
2024/02/29 03:20:22;;;;;;;0.30;0.30;;;10.20;99.90;;;;;;5088570;28;20195;-78
2024/02/29 03:22:48;;;;;;;18.15;17.15;;;10.10;99.90;;;;;;5086201;28;20273;-78
2024/02/29 03:25:14;;;;;;;0.30;0.20;;;10.10;99.90;;;;;;5086808;28;20664;-78
2024/02/29 03:27:39;;;;;;;0.70;0.70;;;10.10;99.90;;;;;;5087870;28;20425;-78
2024/02/29 03:30:06;;;;;;;0.30;0.20;;;10.10;99.90;;;;;;5088169;28;20183;-78
2024/02/29 03:32:31;;;;;;;1.08;0.98;;;10.10;99.90;;;;;;5087896;28;20208;-78
2024/02/29 03:34:57;;;;;;;2.50;2.37;;;10.10;99.90;;;;;;5087770;28;20180;-77
2024/02/29 03:37:22;;;;;;;1.90;1.80;;;10.10;99.90;;;;;;5087086;28;20165;-78
2024/02/29 03:39:48;;;;;;;12.87;12.40;;;10.10;99.90;;;;;;5086572;28;20214;-78
2024/02/29 03:42:14;;;;;;;0.30;0.20;;;10.10;99.90;;;;;;5086006;28;20222;-77
2024/02/29 03:44:45;;;;;;;14.63;14.00;;;10.10;99.90;;;;;;5088224;28;20181;-77
2024/02/29 03:47:11;;;;;;;4.72;4.43;;;10.00;99.90;;;;;;5086337;28;20184;-78
2024/02/29 03:49:36;;;;;;;0.40;0.30;;;9.90;99.90;;;;;;5087835;28;20180;-78
2024/02/29 03:52:02;;;;;;;0.30;0.30;;;9.80;99.90;;;;;;5085870;28;20930;-78
2024/02/29 03:54:28;;;;;;;0.30;0.20;;;9.80;99.90;;;;;;5087953;28;20246;-78
2024/02/29 03:56:54;;;;;;;7.50;6.73;;;9.80;99.90;;;;;;5087315;28;20181;-78
2024/02/29 03:59:20;;;;;;;0.30;0.20;;;9.90;99.90;;;;;;5086046;28;20466;-77
2024/02/29 04:01:50;;;;;;;0.30;0.20;;;10.00;99.90;;;;;;5085475;28;20247;-78
2024/02/29 04:04:19;;;;;;;1.35;1.35;;;10.10;99.90;;;;;;5087734;28;20192;-78
2024/02/29 04:06:45;;;;;;;0.30;0.20;;;10.10;99.90;;;;;;5087601;28;20188;-78
2024/02/29 04:09:11;;;;;;;0.30;0.20;;;10.20;99.90;;;;;;5085791;28;20208;-78
2024/02/29 04:11:38;;;;;;;0.57;0.57;;;10.20;99.90;;;;;;5084721;28;20821;-78
2024/02/29 04:14:03;;;;;;;17.55;16.30;;;10.30;99.90;;;;;;5085946;28;20235;-78
2024/02/29 04:16:30;;;;;;;0.30;0.20;;;10.30;99.90;;;;;;5086730;28;20394;-78
2024/02/29 04:18:55;;;;;;;0.30;0.30;;;10.30;99.90;;;;;;5086918;28;20753;-78
2024/02/29 04:21:22;;;;;;;0.40;0.30;;;10.30;99.90;;;;;;5086492;28;20298;-78
2024/02/29 04:23:47;;;;;;;0.30;0.20;;;10.30;99.90;;;;;;5085396;28;20684;-78
2024/02/29 04:26:13;;;;;;;0.30;0.20;;;10.30;99.90;;;;;;5085408;28;20180;-78
2024/02/29 04:28:38;;;;;;;0.30;0.20;;;10.40;99.90;;;;;;5085469;28;20289;-78
2024/02/29 04:31:07;;;;;;;0.30;0.20;;;10.30;99.90;;;;;;5086749;28;20204;-78
2024/02/29 04:33:33;;;;;;;0.30;0.30;;;10.40;99.90;;;;;;5087353;28;20550;-78
2024/02/29 04:35:59;;;;;;;0.30;0.27;;;10.40;99.90;;;;;;5086316;28;20176;-78
2024/02/29 04:38:24;;;;;;;0.30;0.20;;;10.40;99.90;;;;;;5085136;28;20208;-78
2024/02/29 04:40:50;;;;;;;7.97;7.43;;;10.40;99.90;;;;;;5086494;28;20180;-78
2024/02/29 04:43:16;;;;;;;0.30;0.20;;;10.40;99.90;;;;;;5086319;28;20215;-78
2024/02/29 04:45:42;;;;;;;1.00;1.00;;;10.40;99.90;;;;;;5085208;28;20177;-77
2024/02/29 04:48:08;;;;;;;0.30;0.20;;;10.50;99.90;;;;;;5086470;28;20681;-77
2024/02/29 04:50:34;;;;;;;37.90;35.90;;;10.50;99.90;;;;;;5086629;28;20173;-78
2024/02/29 04:52:59;;;;;;;0.40;0.40;;;10.50;99.90;;;;;;5084207;28;20787;-78
2024/02/29 04:55:25;;;;;;;0.30;0.20;;;10.50;99.90;;;;;;5086406;28;20172;-78
2024/02/29 04:57:50;;;;;;;0.30;0.23;;;10.60;99.90;;;;;;5086050;28;20212;-78
2024/02/29 05:00:16;;;;;;;0.30;0.20;;;10.60;99.90;;;;;;5085143;28;20546;-78
2024/02/29 05:02:42;;;;;;;0.30;0.20;;;10.60;99.90;;;;;;5085389;28;20193;-78
2024/02/29 05:05:09;;;;;;;0.30;0.20;;;10.60;99.90;;;;;;5085793;28;20263;-78
2024/02/29 05:07:35;;;;;;;1.85;1.70;;;10.60;99.90;;;;;;5085946;28;20299;-78
2024/02/29 05:10:01;;;;;;;0.60;0.60;;;10.70;99.90;;;;;;5085010;28;20255;-78
2024/02/29 05:12:27;;;;;;;0.40;0.40;;;10.70;99.90;;;;;;5085790;28;20657;-78
2024/02/29 05:14:53;;;;;;;3.43;3.33;;;10.70;99.90;;;;;;5085610;28;20196;-78
2024/02/29 05:17:18;;;;;;;0.30;0.20;;;10.70;99.90;;;;;;5085033;28;20173;-78
2024/02/29 05:19:44;;;;;;;2.23;2.13;;;10.70;99.90;;;;;;5085227;28;20265;-77
2024/02/29 05:22:10;;;;;;;0.30;0.20;;;10.70;99.90;;;;;;5084101;28;20413;-78
2024/02/29 05:24:35;;;;;;;5.63;5.40;;;10.80;99.90;;;;;;5085059;28;20188;-78
2024/02/29 05:27:01;;;;;;;0.77;0.77;;;10.70;99.90;;;;;;5084646;28;20176;-78
2024/02/29 05:29:28;;;;;;;0.40;0.37;;;10.70;99.90;;;;;;5079715;28;20669;-78
2024/02/29 05:31:54;;;;;;;0.30;0.30;;;10.70;99.90;;;;;;5073577;28;20173;-78
2024/02/29 05:34:20;;;;;;;0.30;0.20;;;10.70;99.90;;;;;;5075216;28;20616;-78
2024/02/29 05:36:47;;;;;;;0.33;0.33;;;10.70;99.90;;;;;;5077624;28;20165;-78
2024/02/29 05:39:12;;;;;;;0.30;0.20;;;10.70;99.90;;;;;;5091156;28;20511;-78
2024/02/29 05:41:38;;;;;;;0.97;0.97;;;10.60;99.90;;;;;;5073670;28;20299;-78
2024/02/29 05:44:04;;;;;;;0.30;0.30;;;10.50;99.90;;;;;;5073523;28;20650;-78
2024/02/29 05:46:29;;;;;;;0.30;0.20;;;10.50;99.90;;;;;;5073991;28;20164;-78
2024/02/29 05:48:55;;;;;;;0.30;0.30;;;10.40;99.90;;;;;;5073765;28;20511;-78
2024/02/29 05:51:21;;;;;;;9.60;8.90;;;10.40;99.90;;;;;;5072220;28;20431;-78
2024/02/29 05:53:46;;;;;;;0.30;0.20;;;10.30;99.90;;;;;;5078755;28;20297;-78
2024/02/29 05:56:13;;;;;;;0.50;0.50;;;10.30;99.90;;;;;;5083777;28;20179;-78
2024/02/29 05:58:39;;;;;;;0.30;0.20;;;10.30;99.90;;;;;;5078417;28;20207;-78
2024/02/29 06:01:05;;;;;;;1.07;1.03;;;10.30;99.90;;;;;;5071605;28;20181;-78
2024/02/29 06:03:31;;;;;;;0.40;0.40;;;10.30;99.90;;;;;;5069829;28;20195;-78
2024/02/29 06:06:00;;;;;;;0.40;0.33;;;10.30;99.90;;;;;;5088276;28;20180;-77
2024/02/29 06:08:25;;;;;;;0.30;0.30;;;10.20;99.90;;;;;;5063192;28;20303;-78
2024/02/29 06:10:51;;;;;;;2.60;2.50;;;10.10;99.90;;;;;;5083095;28;20325;-78
2024/02/29 06:13:17;;;;;;;0.30;0.20;;;9.90;99.90;;;;;;5080842;28;20413;-78
2024/02/29 06:15:42;;;;;;;1.80;1.70;;;9.80;99.90;;;;;;5078181;28;20180;-77
2024/02/29 06:18:08;;;;;;;0.30;0.20;;;9.70;99.90;;;;;;5074921;28;20192;-77
2024/02/29 06:20:34;;;;;;;0.30;0.20;;;9.60;99.90;;;;;;5075457;28;20187;-77
2024/02/29 06:23:00;;;;;;;0.30;0.23;;;9.60;99.90;;;;;;5077693;28;20469;-78
2024/02/29 06:25:26;;;;;;;5.80;5.60;;;9.60;99.90;;;;;;5077635;28;20169;-77
2024/02/29 06:27:51;;;;;;;10.67;8.33;;;9.60;99.90;;;;;;5078621;28;20846;-77
2024/02/29 06:30:17;;;;;;;0.30;0.30;;;9.60;99.90;;;;;;5078312;28;20646;-77
2024/02/29 06:32:45;;;;;;;0.30;0.30;;;9.60;99.90;;;;;;5079718;28;20804;-77
2024/02/29 06:35:12;;;;;;;0.30;0.30;;;9.60;99.90;;;;;;5077002;28;20185;-77
2024/02/29 06:37:42;;;;;;;0.77;0.77;;;9.70;99.90;;;;;;5070144;28;20200;-77
2024/02/29 06:40:10;;;;;;;0.30;0.20;;;9.70;99.90;;;;;;5078433;28;20175;-77
2024/02/29 06:42:37;;;;;;;0.60;0.57;;;9.70;99.90;;;;;;5080325;28;20239;-77
2024/02/29 06:45:04;;;;;;;0.40;0.40;;;9.80;99.90;;;;;;5084424;28;20771;-77
2024/02/29 06:47:30;;;;;;;0.30;0.20;;;9.80;99.90;;;;;;5077262;28;20192;-77
2024/02/29 06:49:56;;;;;;;1.80;1.67;;;9.80;99.90;;;;;;5083135;28;20185;-77
2024/02/29 06:52:22;;;;;;;0.30;0.20;;;9.80;99.90;;;;;;5086044;28;20643;-77
2024/02/29 06:54:48;;;;;;;0.30;0.20;;;9.80;99.90;;;;;;5085138;28;20230;-77
2024/02/29 06:57:14;;;;;;;0.30;0.30;;;9.90;99.90;;;;;;5083767;28;20644;-77
2024/02/29 06:59:40;;;;;;;1.57;1.57;;;9.90;99.90;;;;;;5071802;28;20188;-77
2024/02/29 07:02:06;;;;;;;0.30;0.30;;;9.90;99.90;;;;;;5062011;28;20700;-77
2024/02/29 07:04:31;;;;;;;0.30;0.20;;;10.00;99.90;;;;;;5072989;28;20547;-77
2024/02/29 07:06:57;;;;;;;1.03;1.03;;;10.00;99.90;;;;;;5082799;28;20189;-77
2024/02/29 07:09:23;;;;;;;0.30;0.20;;;10.10;99.90;;;;;;5083716;28;20200;-77
2024/02/29 07:11:49;;;;;;;0.30;0.20;;;10.10;99.90;;;;;;5076552;28;20634;-77
2024/02/29 07:14:16;;;;;;;1.60;1.50;;;10.20;99.90;;;;;;5062265;28;20224;-77
2024/02/29 07:16:42;;;;;;;0.65;0.63;;;10.30;99.90;;;;;;5072997;28;20500;-77
2024/02/29 07:19:08;;;;;;;0.40;0.30;;;10.30;99.90;;;;;;5077945;28;20438;-77
2024/02/29 07:21:35;;;;;;;0.40;0.40;;;10.40;99.90;;;;;;5081617;28;20658;-77
2024/02/29 07:24:02;;;;;;;0.30;0.20;;;10.50;99.90;;;;;;5079765;28;20977;-77
2024/02/29 07:26:28;;;;;;;0.30;0.30;;;10.50;99.90;;;;;;5075304;28;20304;-77
2024/02/29 07:28:54;;;;;;;0.30;0.20;;;10.60;99.90;;;;;;5084453;28;20353;-79
2024/02/29 07:31:19;;;;;;;1.03;1.03;;;10.70;99.90;;;;;;5083161;28;20181;-77
2024/02/29 07:33:46;;;;;;;2.63;2.53;;;10.80;99.90;;;;;;5068815;28;20288;-77
2024/02/29 07:36:12;;;;;;;0.30;0.20;;;11.00;99.90;;;;;;5080010;28;20177;-77
2024/02/29 07:38:38;;;;;;;0.40;0.20;;;11.10;99.90;;;;;;5084398;28;20223;-77
2024/02/29 07:41:04;;;;;;;0.40;0.40;;;11.20;99.90;;;;;;5080884;28;20657;-77
2024/02/29 07:43:29;;;;;;;0.30;0.20;;;11.30;99.90;;;;;;5084090;28;20272;-77
2024/02/29 07:45:55;;;;;;;0.30;0.20;;;11.40;99.90;;;;;;5084377;28;20251;-77
2024/02/29 07:48:20;;;;;;;0.40;0.20;;;11.50;99.90;;;;;;5086253;28;20201;-77
2024/02/29 07:50:46;;;;;;;0.30;0.20;;;11.60;99.90;;;;;;5084468;28;20216;-77
2024/02/29 07:53:12;;;;;;;1.30;1.30;;;11.80;99.90;;;;;;5082670;28;20358;-78
2024/02/29 07:55:38;;;;;;;1.53;1.53;;;11.80;99.90;;;;;;5069669;28;20717;-77
2024/02/29 07:58:05;;;;;;;0.30;0.30;;;11.90;99.90;;;;;;5080440;28;20299;-78
2024/02/29 08:00:31;;;;;;;1.70;1.70;;;12.10;99.90;;;;;;5077310;28;20804;-78
2024/02/29 08:02:56;;;;;;;15.07;14.17;;;12.20;99.90;;;;;;5069196;28;20589;-77
2024/02/29 08:05:24;;;;;;;2.33;2.23;;;12.30;99.90;;;;;;5075342;28;20207;-77
2024/02/29 08:07:50;;;;;;;0.40;0.30;;;12.30;99.90;;;;;;5060768;28;20678;-78
2024/02/29 08:10:16;;;;;;;0.33;0.20;;;12.40;99.90;;;;;;5076455;28;20421;-77
2024/02/29 08:12:43;;;;;;;0.30;0.20;;;12.50;99.90;;;;;;5081354;28;20236;-77
2024/02/29 08:15:09;;;;;;;0.30;0.30;;;12.60;99.90;;;;;;5080869;28;20440;-78
2024/02/29 08:17:35;;;;;;;0.93;0.93;;;12.70;99.90;;;;;;5081792;28;20464;-78
2024/02/29 08:20:01;;;;;;;0.40;0.33;;;12.80;99.90;;;;;;5074128;28;20440;-77
2024/02/29 08:22:27;;;;;;;2.57;1.37;;;12.90;99.90;;;;;;5072695;28;20428;-78
2024/02/29 08:24:52;;;;;;;0.80;0.80;;;13.00;99.90;;;;;;5063815;28;20512;-78
2024/02/29 08:27:18;;;;;;;0.30;0.20;;;13.20;99.90;;;;;;5077552;28;20641;-78
2024/02/29 08:29:43;;;;;;;0.40;0.30;;;13.30;99.90;;;;;;5076563;28;20178;-78
2024/02/29 08:32:09;;;;;;;15.93;14.60;;;13.40;99.90;;;;;;5070783;28;20730;-78
2024/02/29 08:34:35;;;;;;;0.30;0.30;;;13.40;99.90;;;;;;5078821;28;20586;-77
2024/02/29 08:37:01;;;;;;;0.73;0.73;;;13.50;99.90;;;;;;5074011;28;20188;-79
2024/02/29 08:39:27;;;;;;;0.57;0.57;;;13.70;99.90;;;;;;5081531;28;20697;-79
2024/02/29 08:41:53;;;;;;;0.60;0.60;;;13.80;99.90;;;;;;5079971;28;20434;-79
2024/02/29 08:44:19;;;;;;;0.40;0.27;;;13.90;99.90;;;;;;5073783;28;20215;-78
2024/02/29 08:46:44;;;;;;;0.30;0.20;;;14.00;99.90;;;;;;5077860;28;20477;-78
2024/02/29 08:49:10;;;;;;;0.50;0.50;;;14.10;99.90;;;;;;5071731;28;20642;-78
2024/02/29 08:51:36;;;;;;;4.20;3.80;;;14.10;99.90;;;;;;5072972;28;20208;-78
2024/02/29 08:54:03;;;;;;;0.30;0.20;;;14.30;99.90;;;;;;5075175;28;20295;-78
2024/02/29 08:56:29;;;;;;;0.93;0.93;;;14.40;99.90;;;;;;5081777;28;20424;-78
2024/02/29 08:58:55;;;;;;;0.30;0.20;;;14.50;99.90;;;;;;5080474;28;20795;-78
2024/02/29 09:01:21;;;;;;;0.33;0.30;;;14.50;99.90;;;;;;5073355;28;20177;-77
2024/02/29 09:04:05;;;;;;;0.30;0.20;;;14.60;99.90;;;;;;5068747;28;20577;-78
2024/02/29 09:06:31;;;;;;;0.30;0.20;;;14.70;99.90;;;;;;5071095;28;20192;-78
2024/02/29 09:08:57;;;;;;;0.43;0.43;;;14.80;99.90;;;;;;5073372;28;20449;-78
2024/02/29 09:11:22;;;;;;;4.33;4.13;;;14.80;99.90;;;;;;5068230;28;20848;-77
2024/02/29 09:13:49;;;;;;;0.87;0.80;;;14.90;99.90;;;;;;5070252;28;20221;-78
2024/02/29 09:16:16;;;;;;;4.10;3.90;;;15.00;99.90;;;;;;5074532;28;20510;-78
2024/02/29 09:18:41;;;;;;;2.63;2.53;;;15.00;99.90;;;;;;5077918;28;20305;-78
2024/02/29 09:21:07;;;;;;;0.60;0.60;;;15.10;99.90;;;;;;5078467;28;20509;-78
2024/02/29 09:23:32;;;;;;;1.20;1.20;;;15.20;99.90;;;;;;5072677;28;20200;-78
2024/02/29 09:25:58;;;;;;;0.50;0.50;;;15.20;99.90;;;;;;5068122;28;20584;-78
2024/02/29 09:28:24;;;;;;;0.30;0.20;;;15.30;99.90;;;;;;5077819;28;20586;-78
2024/02/29 09:30:49;;;;;;;0.60;0.50;;;15.40;99.90;;;;;;5077027;28;20172;-78
2024/02/29 09:33:15;;;;;;;0.50;0.50;;;15.40;99.90;;;;;;5076927;28;20220;-78
2024/02/29 09:35:41;;;;;;;12.03;3.90;;;15.50;99.90;;;;;;5076934;28;20189;-78
2024/02/29 09:38:07;;;;;;;2.10;2.00;;;15.60;99.90;;;;;;5071859;28;20736;-78
2024/02/29 09:40:32;;;;;;;0.30;0.20;;;15.60;99.90;;;;;;5076159;28;20485;-78
2024/02/29 09:42:58;;;;;;;0.67;0.67;;;15.70;99.90;;;;;;5076187;28;20641;-78
2024/02/29 09:45:24;;;;;;;0.30;0.20;;;15.70;99.90;;;;;;5092071;28;20172;-78
2024/02/29 09:47:51;;;;;;;3.13;2.83;;;15.70;99.90;;;;;;5074644;28;20863;-78
2024/02/29 09:50:17;;;;;;;1.27;1.27;;;15.80;99.90;;;;;;5072917;28;20417;-79
2024/02/29 09:52:45;;;;;;;3.70;3.50;;;15.90;99.90;;;;;;5078624;28;20718;-79
2024/02/29 09:55:17;;;;;;;0.37;0.30;;;15.90;99.90;;;;;;5072793;28;20435;-79
2024/02/29 09:57:45;;;;;;;6.33;6.13;;;16.00;99.90;;;;;;5071890;28;20472;-79
2024/02/29 10:00:11;;;;;;;3.30;2.40;;;16.00;99.90;;;;;;5070529;28;20694;-79
2024/02/29 10:02:42;;;;;;;0.30;0.20;;;16.10;99.90;;;;;;5073947;28;20854;-79
2024/02/29 10:05:09;;;;;;;0.87;0.87;;;16.10;99.90;;;;;;5075821;28;20528;-78
2024/02/29 10:07:46;;;;;;;0.30;0.20;;;16.20;99.90;;;;;;5078425;28;21427;-78
2024/02/29 10:10:16;;;;;;;0.30;0.20;;;16.20;99.90;;;;;;5074411;28;20433;-78
2024/02/29 10:12:45;;;;;;;0.30;0.30;;;16.30;99.90;;;;;;5077411;28;20493;-79
2024/02/29 10:15:11;;;;;;;0.73;0.73;;;16.30;99.90;;;;;;5077018;28;20930;-78
2024/02/29 10:17:38;;;;;;;2.87;2.67;;;16.40;99.90;;;;;;5076868;28;20453;-79
2024/02/29 10:20:09;;;;;;;3.17;2.97;;;16.40;99.90;;;;;;5073011;28;20462;-79
2024/02/29 10:22:37;;;;;;;0.30;0.20;;;16.40;99.90;;;;;;5070626;28;20472;-78
2024/02/29 10:25:08;;;;;;;0.50;0.43;;;16.40;99.90;;;;;;5071309;28;20716;-79
2024/02/29 10:27:34;;;;;;;2.03;1.90;;;16.50;99.90;;;;;;5075315;28;20453;-79
2024/02/29 10:29:59;;;;;;;0.60;0.60;;;16.50;99.90;;;;;;5072864;28;21042;-79
2024/02/29 10:32:25;;;;;;;0.40;0.40;;;16.60;99.90;;;;;;5070745;28;20645;-79
2024/02/29 10:34:50;;;;;;;0.50;0.50;;;16.70;99.90;;;;;;5070128;28;20403;-79
2024/02/29 10:37:16;;;;;;;0.50;0.50;;;16.80;99.90;;;;;;5069567;28;20205;-79
2024/02/29 10:39:42;;;;;;;1.90;1.80;;;16.80;99.90;;;;;;5075327;28;20924;-78
2024/02/29 10:42:09;;;;;;;0.30;0.30;;;16.80;99.90;;;;;;5073181;28;20181;-79
2024/02/29 10:44:37;;;;;;;0.30;0.20;;;16.90;99.90;;;;;;5075853;28;20457;-78
2024/02/29 10:47:07;;;;;;;1.17;1.17;;;17.00;99.90;;;;;;5075716;28;20427;-79
2024/02/29 10:49:38;;;;;;;0.50;0.50;;;17.00;99.90;;;;;;5077416;28;20456;-79
2024/02/29 10:52:12;;;;;;;0.30;0.30;;;17.00;99.90;;;;;;5078136;28;20469;-79
2024/02/29 10:55:05;;;;;;;0.40;0.30;;;17.10;99.90;;;;;;5078562;28;20972;-79
2024/02/29 10:57:47;;;;;;;0.30;0.20;;;17.10;99.90;;;;;;5078712;28;20651;-79
2024/02/29 11:00:14;;;;;;;0.30;0.30;;;17.10;99.90;;;;;;5081292;28;20980;-78
2024/02/29 11:02:41;;;;;;;1.30;1.30;;;17.10;99.90;;;;;;5078552;28;21309;-78
2024/02/29 11:05:07;;;;;;;0.30;0.20;;;17.20;99.90;;;;;;5077114;28;20422;-78
2024/02/29 11:07:34;;;;;;;0.70;0.70;;;17.20;99.90;;;;;;5078405;28;20484;-80
2024/02/29 11:10:04;;;;;;;0.40;0.30;;;17.30;99.90;;;;;;5076237;28;20432;-78
2024/02/29 11:12:29;;;;;;;2.33;2.20;;;17.30;99.90;;;;;;5079323;28;20474;-78
2024/02/29 11:14:58;;;;;;;7.53;6.87;;;17.30;99.90;;;;;;5078502;28;20488;-78
2024/02/29 11:17:30;;;;;;;4.10;3.90;;;17.40;99.90;;;;;;5082683;28;20304;-78
2024/02/29 11:20:07;;;;;;;4.83;4.63;;;17.40;99.90;;;;;;5076488;28;20426;-78
2024/02/29 11:22:34;;;;;;;1.33;1.23;;;17.40;99.90;;;;;;5074854;28;20451;-78
2024/02/29 11:25:00;;;;;;;0.30;0.30;;;17.40;99.90;;;;;;5082257;28;20797;-78
2024/02/29 11:27:30;;;;;;;0.30;0.20;;;17.40;99.90;;;;;;5079182;28;20434;-78
2024/02/29 11:30:00;;;;;;;0.83;0.83;;;17.40;99.90;;;;;;5079308;28;20858;-78
2024/02/29 11:32:28;;;;;;;1.13;1.13;;;17.40;99.90;;;;;;5083456;28;20657;-78
2024/02/29 11:34:55;;;;;;;0.90;0.80;;;17.40;99.90;;;;;;5084655;28;20505;-78
2024/02/29 11:37:20;;;;;;;0.60;0.60;;;17.40;99.90;;;;;;5073343;28;20429;-78
2024/02/29 11:39:48;;;;;;;0.30;0.20;;;17.40;99.90;;;;;;5075925;28;20779;-78
2024/02/29 11:42:13;;;;;;;0.30;0.20;;;17.40;99.90;;;;;;5082150;28;20566;-78
2024/02/29 11:44:48;;;;;;;0.87;0.87;;;17.40;99.90;;;;;;5082730;28;20435;-78
2024/02/29 11:47:14;;;;;;;0.93;0.93;;;17.40;99.90;;;;;;5075331;28;20216;-78
2024/02/29 11:49:39;;;;;;;0.40;0.20;;;17.40;99.90;;;;;;5075477;28;20826;-79
2024/02/29 11:52:05;;;;;;;2.73;2.63;;;17.40;99.90;;;;;;5075346;28;20404;-79
2024/02/29 11:54:31;;;;;;;0.97;0.97;;;17.40;99.90;;;;;;5076503;28;20229;-79
2024/02/29 11:56:57;;;;;;;0.50;0.50;;;17.30;99.90;;;;;;5074653;28;20275;-79
2024/02/29 11:59:26;;;;;;;2.43;2.33;;;17.30;99.90;;;;;;5074471;28;21109;-79
2024/02/29 12:01:52;;;;;;;0.30;0.20;;;17.30;99.90;;;;;;5074362;28;20179;-79
2024/02/29 12:04:18;;;;;;;0.30;0.20;;;17.30;99.90;;;;;;5070065;28;20653;-79
2024/02/29 12:06:46;;;;;;;0.30;0.20;;;17.30;99.90;;;;;;5073884;28;20572;-79
2024/02/29 12:09:13;;;;;;;0.40;0.40;;;17.30;99.90;;;;;;5075002;28;20202;-79
2024/02/29 12:11:43;;;;;;;0.70;0.70;;;17.30;99.90;;;;;;5068187;28;20453;-79
2024/02/29 12:14:09;;;;;;;0.40;0.40;;;17.40;99.90;;;;;;5066061;28;20576;-79
2024/02/29 12:16:36;;;;;;;0.70;0.70;;;17.40;99.90;;;;;;5077263;28;20430;-79
2024/02/29 12:19:02;;;;;;;0.50;0.50;;;17.40;99.90;;;;;;5077394;28;20485;-79
2024/02/29 12:21:28;;;;;;;0.90;0.90;;;17.40;99.90;;;;;;5075814;28;20428;-79
2024/02/29 12:23:56;;;;;;;0.40;0.40;;;17.40;99.90;;;;;;5078441;28;21011;-79
2024/02/29 12:26:22;;;;;;;1.20;1.10;;;17.40;99.90;;;;;;5071937;28;20401;-78
2024/02/29 12:28:48;;;;;;;3.50;3.30;;;17.50;99.90;;;;;;5071310;28;20871;-78
2024/02/29 12:31:14;;;;;;;0.40;0.20;;;17.50;99.90;;;;;;5080449;28;20395;-79
2024/02/29 12:33:42;;;;;;;1.87;1.77;;;17.50;99.90;;;;;;5083131;28;20225;-79
2024/02/29 12:36:16;;;;;;;1.63;1.53;;;17.50;99.90;;;;;;5074045;28;20431;-79
2024/02/29 12:38:44;;;;;;;0.40;0.30;;;17.60;99.90;;;;;;5076769;28;20457;-77
2024/02/29 12:41:13;;;;;;;0.40;0.40;;;17.60;99.90;;;;;;5060804;28;20518;-78
2024/02/29 12:43:48;;;;;;;0.63;0.63;;;17.60;99.90;;;;;;5067219;28;20537;-78